Tiempo atmosférico en la estación meteorológica de Valladolid, Valladolid (735 m.)



Fecha
DESCASC
Temp. máxima en grados centígrados (hora)
DESCASC
Temp. mínima en grados centígrados (hora)
DESCASC
Temp. media en grados centígrados
DESCASC
Racha de viento máxima en m/sg (hora)
DESCASC
Velocidad máxima media en intervalos de 10 minutos(hora)
DESCASC
Precipitaciones diarias en mm
DESCASC
Precipitaciones de 00:00 a 06:00 en mm
DESCASC
Precipitaciones de 06:00 a 12:00 en mm
DESCASC
Precipitaciones de 12:00 a 18:00 en mm
DESCASC
Precipitaciones de 18:00 a 24:00 en mm
DESCASC
18-08-2019 30.2 (17:30) 17.2 (08:00) 23.7 10.28 (18:40) 5 (16:50) 0 0 0 0 0
17-08-2019 34.7 (17:20) 16.2 (08:00) 25.5 8.61 (18:20) 3.89 (18:20) 0 0 0 0 0
16-08-2019 33.9 (18:10) 15.9 (07:40) 24.9 8.33 (15:30) 3.89 (16:00) 0 0 0 0 0
15-08-2019 32.6 (17:20) 16.7 (00:00) 24.6 7.78 (22:20) 3.33 (22:40) 0 0 0 0 0
14-08-2019 31.9 (18:00) 12.3 (00:00) 22.1 6.11 (17:10) 2.78 (17:10) 0 0 0 0 0
13-08-2019 26.8 (17:10) 10.8 (00:00) 18.8 8.33 (02:20) 3.89 (02:40) 0 0 0 0 0
12-08-2019 23.6 (17:00) 9.7 (00:00) 16.7 9.17 (22:40) 4.17 (21:30) 0 0 0 0 0
11-08-2019 25.1 (17:30) 13.4 (00:00) 19.3 10.83 (21:20) 4.72 (22:50) 2 2 0 0 0
10-08-2019 27.9 (18:20) 13.7 (00:00) 20.8 7.5 (23:59) 3.89 (23:59) 0 0 0 0 0
09-08-2019 26.6 (16:20) 17.1 (00:00) 21.9 11.67 (10:20) 5.28 (16:10) 0.2 0 0 0 0.2
08-08-2019 32.1 (18:40) 19.4 (00:00) 25.7 12.22 (20:40) 6.11 (19:40) 0 0 0 0 0
07-08-2019 28.5 (17:20) 18 (00:00) 23.3 11.39 (18:40) 4.17 (18:20) 0 0 0 0 0
06-08-2019 32.5 (17:00) 17.1 (00:00) 24.8 10.28 (21:30) 5 (21:50) 0 0 0 0 0
05-08-2019 34.8 (17:40) 16.4 (00:00) 25.6 7.22 (00:30) 3.33 (00:30) 0 0 0 0 0
04-08-2019 34.1 (17:30) 17.1 (00:00) 25.6 8.61 (20:20) 3.61 (00:10) 0 0 0 0 0
03-08-2019 35.3 (17:00) 17.2 (00:00) 26.3 8.06 (23:50) 3.89 (23:50) 0 0 0 0 0
02-08-2019 33.6 (19:10) 14.6 (00:00) 24.1 6.94 (00:30) 2.78 (00:30) 0 0 0 0 0
01-08-2019 32 (17:30) 15 (00:00) 23.5 7.5 (15:20) 3.33 (15:00) 0 0 0 0 0
31-07-2019 29.7 (17:10) 11.6 (00:00) 20.7 7.5 (21:10) 2.78 (19:40) 0 0 0 0 0
30-07-2019 25.7 (17:10) 11.3 (00:00) 18.5 8.33 (23:40) 4.17 (02:20) 0 0 0 0 0
29-07-2019 28 (17:20) 14.8 (00:00) 21.4 11.11 (19:10) 5.28 (17:30) 0 0 0 0 0
28-07-2019 28.2 (18:20) 10.8 (00:00) 19.5 6.11 (01:20) 2.5 (00:50) 0 0 0 0 0
27-07-2019 24.5 (16:50) 15.2 (00:00) 19.8 9.44 (17:50) 4.72 (18:10) 0 0 0 0 0
26-07-2019 28.5 (17:30) 17.7 (00:00) 23.1 10.28 (21:40) 5 (21:30) 0 0 0 0 0
25-07-2019 34.3 (16:30) 20.5 (00:00) 27.4 10 (17:10) 5.28 (17:10) 0 0 0 0 0
24-07-2019 35.6 (16:30) 18.5 (00:00) 27 10 (16:10) 3.61 (16:10) 0 0 0 0 0
23-07-2019 36 (18:10) 19.8 (00:00) 27.9 17.22 (19:20) 7.5 (19:20) 7.8 0 1.4 0 6.4
22-07-2019 38.7 (17:00) 19.3 (00:00) 29 11.39 (18:00) 4.72 (17:30) 4 0 0 0.6 3.4

Gráficas

Temp. máximas Temp. mínimas Temp. medias Precipitaciones Rachas de viento máximas Velocidades máximas media en intervalos de 10 minutos

Datos horarios

Fecha y hora oficial Temperatura (ºC) Velocidad del viento (km/h) Dirección del viento Racha (km/h) Dirección de racha Precipitación (mm) Presión (hPa) Tendencia (hPa) Humedad (%)
2019-08-20 23:00:00 18.3 8 Norte 27 Norte 0 936.3 1.1 54
2019-08-20 22:00:00 19.6 10 Nordeste 34 Nordeste 0 935.9 0.7 49
2019-08-20 21:00:00 21.3 11 Nordeste 31 Nordeste 0 935.3 0.2 44
2019-08-20 20:00:00 23.2 7 Norte 21 Este 0 935.2 -0.1 39
2019-08-20 19:00:00 24.2 8 Norte 26 Nordeste 0 935.2 -0.6 36
2019-08-20 18:00:00 25.1 8 Norte 26 Noroeste 0 935.1 -1.2 34
2019-08-20 17:00:00 25.1 8 Norte 25 Norte 0 935.3 -1.2 36
2019-08-20 16:00:00 24.8 7 Norte 27 Nordeste 0 935.8 -0.9 38
2019-08-20 15:00:00 24.3 9 Nordeste 27 Nordeste 0 936.3 -0.4 40
2019-08-20 14:00:00 22.8 9 Norte 27 Nordeste 0 936.5 0.1 44
2019-08-20 13:00:00 21.9 9 Norte 28 Nordeste 0 936.7 0.6 47
2019-08-20 12:00:00 20.6 8 Norte 28 Nordeste 0 936.7 0.9 51
2019-08-20 11:00:00 18.8 10 Nordeste 30 Nordeste 0 936.4 1.2 57
2019-08-20 10:00:00 16.6 9 Norte 32 Nordeste 0 936.1 1.6 67
2019-08-20 09:00:00 15.3 9 Nordeste 27 Noroeste 0 935.8 2.1 74
2019-08-20 08:00:00 14 6 Nordeste 27 Nordeste 0 935.2 2 77
2019-08-20 07:00:00 13.9 8 Nordeste 30 Norte 0 934.5 1.2 77
2019-08-20 06:00:00 14.3 7 Norte 23 Este 0 933.7 0 78
2019-08-20 05:00:00 14.8 9 Norte 32 Norte 0 933.2 -0.5 77
2019-08-20 04:00:00 15.2 8 Norte 32 Norte 0 933.3 -0.5 76
2019-08-20 03:00:00 15.4 8 Norte 28 Norte 0 933.7 0.2 73
2019-08-20 02:00:00 15.4 8 Nordeste 28 Nordeste 0 933.7 0 71
2019-08-20 01:00:00 15.6 8 Norte 29 Nordeste 0 933.8 0.8 69
2019-08-20 00:00:00 16 12 Norte 32 Norte 0 933.5 1.1 68
2019-08-19 23:00:00 17 9 Norte 28 Nordeste 0 933.7 1.6 64
2019-08-19 22:00:00 18.2 8 Norte 27 Nordeste 0 933 0.8 61
2019-08-19 21:00:00 19.9 9 Nordeste 28 Nordeste 0 932.4 0.3 56
2019-08-19 20:00:00 20.7 7 Norte 22 Nordeste 0 932.1 0.1 54
2019-08-19 19:00:00 21.2 8 Norte 21 Norte 0 932.2 -0.2 52
2019-08-19 18:00:00 22.7 6 Nordeste 27 Este 0 932.1 -0.4 49
2019-08-19 17:00:00 23.8 6 Norte 20 Nordeste 0 932 -0.7 45
2019-08-19 16:00:00 23.9 6 Norte 20 Norte 0 932.4 -0.4 44
2019-08-19 15:00:00 24.1 6 Nordeste 20 Nordeste 0 932.5 -0.4 45
2019-08-19 14:00:00 22.4 6 Norte 19 Este 0 932.7 -0.1 50
2019-08-19 13:00:00 21.2 7 Nordeste 18 Norte 0 932.8 0 54
2019-08-19 12:00:00 19.7 8 Norte 24 Nordeste 0 932.9 0.3 59
2019-08-19 11:00:00 18 6 Nordeste 26 Nordeste 0 932.8 0.3 64
2019-08-19 10:00:00 16.1 7 Norte 19 Nordeste 0 932.8 0.5 71
2019-08-19 09:00:00 15.3 6 Nordeste 22 Nordeste 0 932.6 0.4 74
2019-08-19 08:00:00 15.1 6 Norte 24 Nordeste 0 932.5 0.3 76
2019-08-19 07:00:00 15.3 8 Nordeste 21 Norte 0 932.3 0 77
2019-08-19 06:00:00 15.6 8 Nordeste 25 Nordeste 0 932.2 -0.5 77
2019-08-19 05:00:00 15.7 7 Nordeste 24 Noroeste 0 932.2 -0.8 77
2019-08-19 04:00:00 15.9 6 Norte 19 Este 0 932.3 -0.4 76
2019-08-19 03:00:00 15.8 7 Norte 20 Norte 0 932.7 0.3 78
2019-08-19 02:00:00 16.4 7 Norte 20 Norte 0 933 2 75
2019-08-19 01:00:00 18 6 Norte 20 Norte 0 932.7 2.2 68
2019-08-19 00:00:00 19.5 7 Norte 23 Norte 0 932.4 2.4 62
2019-08-18 23:00:00 23.1 4 Noroeste 11 Norte 0 931 1.2 55
2019-08-18 22:00:00 24 3 Norte 14 Noroeste 0 930.5 0.7 52
2019-08-18 21:00:00 26 7 Noroeste 26 Oeste 0 930 0.3 41
2019-08-18 20:00:00 27 11 Oeste 28 Oeste 0 929.8 0.1 40
2019-08-18 19:00:00 27.8 14 Noroeste 37 Oeste 0 929.8 -0.1 42
2019-08-18 18:00:00 29 14 Oeste 35 Oeste 0 929.7 -0.3 37
2019-08-18 17:00:00 29.4 17 Oeste 36 Oeste 0 929.7 -0.5 33
2019-08-18 16:00:00 29.5 14 Sudoeste 31 Oeste 0 929.9 -0.9 34
2019-08-18 15:00:00 28.2 12 Oeste 26 Oeste 0 930 -1 36
2019-08-18 14:00:00 26.6 9 Oeste 22 Sudoeste 0 930.2 -0.7 38
2019-08-18 13:00:00 24.2 9 Sur 22 Sudoeste 0 930.8 0.2 44
2019-08-18 12:00:00 22.9 10 Sudoeste 20 Sur 0 931 0.9 50
2019-08-18 11:00:00 21.7 11 Sudoeste 21 Sur 0 930.9 1.1 55
2019-08-18 10:00:00 19.5 5 Sudoeste 12 Sur 0 930.6 1.1 59
2019-08-18 09:00:00 18.4 6 Sur 12 Sudoeste 0 930.1 0.8 59
2019-08-18 08:00:00 17.2 3 Sur 22 Oeste 0 929.8 0.6 58
2019-08-18 07:00:00 18.7 11 Oeste 23 Sudoeste 0 929.5 -0.1 56
2019-08-18 06:00:00 19.2 6 Sur 12 Sudoeste 0 929.3 -0.4 52
2019-08-18 05:00:00 20.5 8 Sudoeste 15 Sudoeste 0 929.2 -0.5 47
2019-08-18 04:00:00 21.1 2 Sudoeste 8 Oeste 0 929.6 0.1 45
2019-08-18 03:00:00 22.1 6 Oeste 15 Noroeste 0 929.7 0.2 41
2019-08-18 02:00:00 22.9 3 Noroeste 12 Sudoeste 0 929.7 0.2 35
2019-08-18 01:00:00 23.7 3 Sudoeste 11 Noroeste 0 929.5 0.4 33
2019-08-18 00:00:00 24.3 5 Oeste 9 Oeste 0 929.5 0.6 28
2019-08-17 23:00:00 25.9 5 Oeste 13 Oeste 0 929.5 0.7 24
2019-08-17 22:00:00 27.8 5 Oeste 19 Oeste 0 929.1 -0.1 22
2019-08-17 21:00:00 30.7 10 Oeste 28 Oeste 0 928.9 -0.6 18
2019-08-17 20:00:00 33 9 Oeste 27 Oeste 0 928.8 -1.3 16
2019-08-17 19:00:00 34.5 12 Oeste 31 Oeste 0 929.2 -1.4 14
2019-08-17 18:00:00 34.6 8 Oeste 27 Oeste 0 929.5 -1.6 13
2019-08-17 17:00:00 34.4 9 Sudoeste 26 Sudoeste 0 930.1 -1.6 14
2019-08-17 16:00:00 33.6 9 Sur 24 Sudeste 0 930.6 -2 14
2019-08-17 15:00:00 32.7 8 Sudoeste 22 Sudoeste 0 931.1 -2.1 21
2019-08-17 14:00:00 30.8 8 Sudoeste 20 Oeste 0 931.7 -1.6 26
2019-08-17 13:00:00 28.6 8 Sudoeste 15 Sudoeste 0 932.6 -0.7 32
2019-08-17 12:00:00 27.1 5 Sur 10 Sudoeste 0 933.2 0 37
2019-08-17 11:00:00 25 2 Noroeste 6 Norte 0 933.3 0.2 42
2019-08-17 10:00:00 21.2 4 Sudeste 9 Sudeste 0 933.3 0.4 47
2019-08-17 09:00:00 19.1 3 Sudeste 8 Sudeste 0 933.2 0.5 49
2019-08-17 08:00:00 16.3 3 Oeste 6 Oeste 0 933.1 0.3 63
2019-08-17 07:00:00 17.2 2 Sudoeste 8 Sudoeste 0 932.9 0.1 58
2019-08-17 06:00:00 18.7 0 Calma 11 Oeste 0 932.7 -0.2 55
2019-08-17 05:00:00 19.5 4 Oeste 9 Oeste 0 932.8 -0.3 55
2019-08-17 04:00:00 20.2 4 Oeste 11 Oeste 0 932.8 0.1 50
2019-08-17 03:00:00 21.8 4 Noroeste 19 Nordeste 0 932.9 0.5 45
2019-08-17 02:00:00 23.2 4 Nordeste 21 Norte 0 933.1 1 40
2019-08-17 01:00:00 24.5 9 Noroeste 26 Noroeste 0 932.7 0.9 31
2019-08-17 00:00:00 24.6 9 Noroeste 21 Oeste 0 932.4 1 27
2019-08-16 23:00:00 27.2 10 Oeste 22 Oeste 0 932.1 0.9 23
2019-08-16 22:00:00 29 11 Oeste 19 Oeste 0 931.8 0.3 18
2019-08-16 21:00:00 30.8 9 Oeste 20 Sudoeste 0 931.4 -0.4 16
2019-08-16 20:00:00 32.4 7 Oeste 22 Sudoeste 0 931.2 -0.8 17
2019-08-16 19:00:00 33.4 8 Oeste 25 Oeste 0 931.5 -1 16
2019-08-16 18:00:00 33.8 8 Oeste 25 Oeste 0 931.8 -1 16
2019-08-16 17:00:00 33.3 9 Oeste 24 Sudoeste 0 932 -1.3 21
2019-08-16 16:00:00 32.2 14 Oeste 30 Sudoeste 0 932.5 -1.5 24
2019-08-16 15:00:00 32 9 Sur 24 Sudoeste 0 932.8 -1.5 27
2019-08-16 14:00:00 30.4 8 Sur 17 Sur 0 933.3 -1.1 31
2019-08-16 13:00:00 28.1 4 Noroeste 11 Oeste 0 934 -0.8 35
2019-08-16 12:00:00 25.6 4 Sudoeste 7 Oeste 0 934.3 -0.3 41
2019-08-16 11:00:00 22.7 3 Noroeste 8 Sudoeste 0 934.4 0 49
2019-08-16 10:00:00 19.5 4 Nordeste 9 Norte 0 934.8 0.6 58
2019-08-16 09:00:00 16.9 5 Norte 10 Norte 0 934.6 0.5 69
2019-08-16 08:00:00 16 5 Nordeste 16 Nordeste 0 934.4 0.1 71
2019-08-16 07:00:00 16.1 4 Noroeste 11 Norte 0 934.2 -0.4 68
2019-08-16 06:00:00 16.9 4 Norte 13 Noroeste 0 934.1 -0.5 66
2019-08-16 05:00:00 17.4 5 Noroeste 11 Norte 0 934.3 -0.7 66
2019-08-16 04:00:00 18.4 4 Norte 12 Noroeste 0 934.6 -0.4 62
2019-08-16 03:00:00 19.1 4 Norte 10 Norte 0 934.6 -0.4 59
2019-08-16 02:00:00 20.4 5 Norte 17 Noroeste 0 935 0.2 55
2019-08-16 01:00:00 21.7 5 Nordeste 18 Nordeste 0 935 0.8 50
2019-08-16 00:00:00 23 5 Norte 23 Este 0 935 1.2 45
2019-08-15 23:00:00 25 10 Este 28 Este 0 934.8 1 39
2019-08-15 22:00:00 26.7 3 Nordeste 9 Norte 0 934.2 0.4 37
2019-08-15 21:00:00 28.5 4 Norte 15 Norte 0 933.8 -0.2 31
2019-08-15 20:00:00 29.8 4 Norte 18 Noroeste 0 933.8 -0.5 29
2019-08-15 19:00:00 30.9 6 Norte 19 Norte 0 933.8 -1.2 27
2019-08-15 18:00:00 31.5 7 Norte 19 Norte 0 934 -1.4 26
2019-08-15 17:00:00 31.8 6 Oeste 17 Oeste 0 934.3 -1.7 25
2019-08-15 16:00:00 31.1 4 Noroeste 15 Oeste 0 935 -1.5 28
2019-08-15 15:00:00 30 5 Noroeste 16 Este 0 935.4 -1.4 31
2019-08-15 14:00:00 27.8 8 Este 18 Este 0 936 -1 35
2019-08-15 13:00:00 26.5 9 Nordeste 18 Este 0 936.5 -0.4 36
2019-08-15 12:00:00 24.4 6 Norte 14 Noroeste 0 936.8 -0.1 50
2019-08-15 11:00:00 22 5 Nordeste 12 Norte 0 937 0.3 61
2019-08-15 10:00:00 19.5 5 Norte 15 Nordeste 0 936.9 0.6 69
2019-08-15 09:00:00 18.6 5 Nordeste 14 Norte 0 936.9 1.2 72
2019-08-15 08:00:00 16.7 4 Norte 13 Nordeste 0 936.7 1.1 79
2019-08-15 07:00:00 17.1 4 Norte 13 Norte 0 936.3 0.9 76
2019-08-15 06:00:00 17.5 4 Norte 14 Nordeste 0 935.7 0.5 71
2019-08-15 05:00:00 18.1 5 Norte 18 Norte 0 935.6 0.2 66
2019-08-15 04:00:00 19 8 Norte 17 Norte 0 935.4 0.1 60
2019-08-15 03:00:00 20.4 4 Norte 17 Norte 0 935.2 0.1 56
2019-08-15 02:00:00 22.2 7 Norte 16 Norte 0 935.4 0.7 51
2019-08-15 01:00:00 23.6 10 Noroeste 23 Norte 0 935.3 1.1 53
2019-08-15 00:00:00 23.9 8 Noroeste 21 Norte 0 935.1 1.2 47
2019-08-14 23:00:00 25.3 3 Oeste 4 Oeste 0 934.7 0.9 39
2019-08-14 22:00:00 26.9 3 Oeste 8 Norte 0 934.2 0.3 35
2019-08-14 21:00:00 28.5 6 Noroeste 14 Norte 0 933.9 -0.3 30
2019-08-14 20:00:00 29.7 7 Noroeste 18 Oeste 0 933.8 -0.7 26
2019-08-14 19:00:00 31.1 5 Oeste 20 Oeste 0 933.9 -1.1 22
2019-08-14 18:00:00 31.5 6 Noroeste 22 Oeste 0 934.2 -1.4 20
2019-08-14 17:00:00 31 5 Noroeste 21 Noroeste 0 934.5 -1.4 21
2019-08-14 16:00:00 30.7 9 Noroeste 19 Oeste 0 935 -1.2 21
2019-08-14 15:00:00 30.2 8 Noroeste 17 Noroeste 0 935.6 -0.9 20
2019-08-14 14:00:00 28.7 9 Sudoeste 18 Sur 0 935.9 -1 21
2019-08-14 13:00:00 27.1 8 Oeste 16 Oeste 0 936.2 -0.6 22
2019-08-14 12:00:00 24.1 5 Sur 11 Sudoeste 0 936.5 0 30
2019-08-14 11:00:00 20.3 3 Oeste 7 Norte 0 936.9 0.7 41
2019-08-14 10:00:00 17.4 3 Nordeste 6 Norte 0 936.8 0.9 52
2019-08-14 09:00:00 14.8 3 Norte 7 Norte 0 936.5 0.6 60
2019-08-14 08:00:00 12.3 3 Norte 5 Noroeste 0 936.2 0.3 69
2019-08-14 07:00:00 12.9 3 Noroeste 9 Norte 0 935.9 -0.1 69
2019-08-14 06:00:00 13.6 3 Noroeste 8 Norte 0 935.9 -0.3 67
2019-08-14 05:00:00 14.2 4 Noroeste 10 Norte 0 935.9 -0.4 61
2019-08-14 04:00:00 15.2 4 Norte 9 Nordeste 0 936 0.2 50
2019-08-14 03:00:00 15.7 3 Norte 8 Norte 0 936.2 0.4 40
2019-08-14 02:00:00 16.7 2 Norte 6 Este 0 936.3 0.6 39
2019-08-14 01:00:00 18.1 0 Calma 5 Noroeste 0 935.8 0.3 34
2019-08-14 00:00:00 19 3 Noroeste 5 Noroeste 0 935.8 0.7 31
2019-08-13 23:00:00 20.1 3 Noroeste 4 Nordeste 0 935.7 0.8 29
2019-08-13 22:00:00 21.7 0 Calma 10 Norte 0 935.5 0.7 26
2019-08-13 21:00:00 23.7 4 Norte 14 Norte 0 935.1 0.2 23
2019-08-13 20:00:00 25.3 5 Noroeste 20 Norte 0 934.9 -0.4 19
2019-08-13 19:00:00 26.2 7 Norte 18 Noroeste 0 934.8 -1 18
2019-08-13 18:00:00 26.3 5 Norte 16 Noroeste 0 934.9 -1.3 19
2019-08-13 17:00:00 26.4 5 Nordeste 21 Norte 0 935.3 -1.4 22
2019-08-13 16:00:00 25.6 6 Norte 18 Nordeste 0 935.8 -1.3 22
2019-08-13 15:00:00 24.4 5 Nordeste 15 Nordeste 0 936.2 -1.2 24
2019-08-13 14:00:00 23.1 6 Este 15 Este 0 936.7 -0.8 32
2019-08-13 13:00:00 21.4 7 Norte 16 Norte 0 937.1 -0.3 36
2019-08-13 12:00:00 19.2 6 Norte 15 Norte 0 937.4 0 43
2019-08-13 11:00:00 16.6 7 Norte 16 Norte 0 937.5 0.3 53
2019-08-13 10:00:00 14.4 5 Norte 18 Norte 0 937.4 0.5 61
2019-08-13 09:00:00 12.5 6 Nordeste 16 Norte 0 937.4 0.5 71
2019-08-13 08:00:00 10.9 3 Norte 12 Norte 0 937.2 0.3 77
2019-08-13 07:00:00 11 5 Norte 11 Nordeste 0 936.9 -0.2 77
2019-08-13 06:00:00 11.8 2 Noroeste 16 Nordeste 0 936.9 -0.4 72
2019-08-13 05:00:00 12.9 6 Nordeste 22 Este 0 936.9 -1 66
2019-08-13 04:00:00 13 6 Nordeste 27 Este 0 937.1 -0.7 68
2019-08-13 03:00:00 13.5 10 Nordeste 30 Nordeste 0 937.3 -0.1 67
2019-08-13 02:00:00 14.3 10 Nordeste 27 Nordeste 0 937.9 0.8 60
2019-08-13 01:00:00 14.9 7 Norte 25 Nordeste 0 937.8 1.6 59
2019-08-13 00:00:00 16.4 8 Norte 27 Este 0 937.4 1.8 54
2019-08-12 23:00:00 18 8 Nordeste 33 Nordeste 0 937.1 1.8 46
2019-08-12 22:00:00 19.6 9 Nordeste 26 Nordeste 0 936.2 0.9 34
2019-08-12 21:00:00 20.6 10 Este 27 Este 0 935.6 0.2 32
2019-08-12 20:00:00 21.9 5 Norte 16 Norte 0 935.3 -0.3 28
2019-08-12 19:00:00 23.2 7 Nordeste 18 Norte 0 935.3 -0.9 26
2019-08-12 18:00:00 23.2 5 Norte 21 Noroeste 0 935.4 -1.2 27
2019-08-12 17:00:00 23.6 6 Este 18 Norte 0 935.6 -1.5 26
2019-08-12 16:00:00 22.7 6 Nordeste 23 Norte 0 936.2 -1.3 30
2019-08-12 15:00:00 22 5 Sudeste 20 Norte 0 936.6 -1.1 32
2019-08-12 14:00:00 20.7 8 Norte 19 Noroeste 0 937.1 -0.4 34
2019-08-12 13:00:00 19 7 Norte 18 Norte 0 937.5 0.2 39
2019-08-12 12:00:00 17.9 5 Nordeste 15 Norte 0 937.7 0.7 48
2019-08-12 11:00:00 16.5 5 Nordeste 14 Nordeste 0 937.5 1 57
2019-08-12 10:00:00 14.4 6 Norte 13 Nordeste 0 937.3 1.4 65
2019-08-12 09:00:00 12.1 4 Norte 9 Norte 0 937 1.3 77
2019-08-12 08:00:00 10.1 3 Noroeste 7 Norte 0 936.5 0.8 84
2019-08-12 07:00:00 10 2 Norte 8 Norte 0 935.9 0.1 84
2019-08-12 06:00:00 10.6 3 Norte 13 Norte 0 935.7 -0.3 81
2019-08-12 05:00:00 11.3 6 Noroeste 13 Norte 0 935.7 -0.2 78
2019-08-12 04:00:00 11.7 5 Noroeste 18 Norte 0 935.8 0 76
2019-08-12 03:00:00 12.3 6 Noroeste 15 Norte 0 936 0.4 74
2019-08-12 02:00:00 13.3 6 Norte 17 Norte 0 935.9 1.1 70
2019-08-12 01:00:00 14 6 Norte 21 Nordeste 0 935.8 2 67
2019-08-12 00:00:00 15 8 Norte 31 Noroeste 0 935.6 2.8 64
2019-08-11 23:00:00 16.9 17 Noroeste 35 Norte 0 934.8 2.4 48
2019-08-11 22:00:00 18.6 16 Noroeste 39 Noroeste 0 933.8 1.5 43
2019-08-11 21:00:00 21.9 13 Oeste 27 Oeste 0 932.8 0.3 27
2019-08-11 20:00:00 23.8 11 Oeste 30 Oeste 0 932.4 -0.3 22
2019-08-11 19:00:00 24.4 11 Oeste 27 Noroeste 0 932.3 -0.7 25
2019-08-11 18:00:00 24.6 9 Oeste 28 Oeste 0 932.5 -1 27
2019-08-11 17:00:00 24.9 10 Oeste 29 Sudoeste 0 932.7 -1.1 25
2019-08-11 16:00:00 23.4 9 Sudoeste 30 Oeste 0 933 -0.9 37
2019-08-11 15:00:00 21.8 14 Oeste 25 Oeste 0 933.5 -0.4 50
2019-08-11 14:00:00 21 6 Noroeste 22 Oeste 0 933.8 0 53
2019-08-11 13:00:00 20.4 9 Noroeste 22 Noroeste 0 933.9 0.6 59
2019-08-11 12:00:00 20.2 6 Noroeste 18 Oeste 0 933.9 0.8 63
2019-08-11 11:00:00 18.5 6 Oeste 17 Oeste 0 933.8 1.2 72
2019-08-11 10:00:00 16.5 5 Sudoeste 9 Oeste 0 933.3 1.1 77
2019-08-11 09:00:00 15.3 2 Oeste 9 Nordeste 0 933.1 0.5 89
2019-08-11 08:00:00 13.7 5 Este 13 Nordeste 0 932.6 -0.6 95
2019-08-11 07:00:00 13.6 3 Nordeste 12 Norte 0 932.2 -1.5 93
2019-08-11 06:00:00 14.3 5 Norte 17 Norte 0.8 932.6 -0.6 93
2019-08-11 05:00:00 14.7 6 Noroeste 15 Norte 0.8 933.2 0.2 91
2019-08-11 04:00:00 15.4 4 Nordeste 21 Norte 0.4 933.7 0.7 84
2019-08-11 03:00:00 17 5 Noroeste 15 Noroeste 0 933.2 0.4 67
2019-08-11 02:00:00 17.7 5 Nordeste 18 Nordeste 0 933 -0.2 64
2019-08-11 01:00:00 19.1 6 Norte 26 Noroeste 0 933 0.1 60
2019-08-11 00:00:00 21.9 14 Noroeste 27 Noroeste 0 932.8 0.1 37
2019-08-10 23:00:00 22.7 6 Noroeste 15 Norte 0 933.2 0.7 29
2019-08-10 22:00:00 24 6 Noroeste 17 Oeste 0 932.9 0.2 27
2019-08-10 21:00:00 25.2 8 Oeste 19 Oeste 0 932.7 -0.3 26
2019-08-10 20:00:00 27.1 6 Oeste 22 Noroeste 0 932.5 -1.1 26
2019-08-10 19:00:00 27.8 8 Oeste 20 Oeste 0 932.7 -1.5 23
2019-08-10 18:00:00 27.3 7 Sur 19 Oeste 0 933 -1.8 26
2019-08-10 17:00:00 27.4 10 Sudoeste 22 Sudoeste 0 933.6 -1.7 27
2019-08-10 16:00:00 27.1 9 Oeste 24 Oeste 0 934.2 -1.5 26
2019-08-10 15:00:00 26.1 5 Sudoeste 18 Oeste 0 934.8 -1.3 30
2019-08-10 14:00:00 24.2 7 Oeste 17 Oeste 0 935.3 -1 36
2019-08-10 13:00:00 22.7 5 Sudoeste 15 Noroeste 0 935.7 -0.6 42
2019-08-10 12:00:00 21.3 6 Sudoeste 13 Sudoeste 0 936.1 -0.1 45
2019-08-10 11:00:00 19.5 5 Sur 11 Este 0 936.3 0.4 57
2019-08-10 10:00:00 16.7 3 Sudeste 9 Sudoeste 0 936.3 1.1 70
2019-08-10 09:00:00 14.4 3 Sur 10 Sudoeste 0 936.2 1.1 80
2019-08-10 08:00:00 13.9 5 Sur 11 Sudeste 0 935.9 0.9 81
2019-08-10 07:00:00 13.8 3 Sur 13 Sur 0 935.2 0.6 80
2019-08-10 06:00:00 14.1 4 Sudeste 12 Sudoeste 0 935.1 0.5 80
2019-08-10 05:00:00 15.1 8 Sudoeste 17 Oeste 0 935 0.2 75
2019-08-10 04:00:00 15.4 8 Oeste 17 Sudoeste 0 934.6 -0.1 71
2019-08-10 03:00:00 15.3 4 Sudoeste 8 Sudeste 0 934.6 0.3 87
2019-08-10 02:00:00 15.4 3 Oeste 7 Noroeste 0 934.8 0.6 89
2019-08-10 01:00:00 16.5 3 Sudoeste 10 Sur 0 934.7 1.2 88
2019-08-10 00:00:00 17.2 5 Sur 12 Sudeste 0 934.3 1.3 85
2019-08-09 23:00:00 17.9 8 Sur 15 Sudoeste 0 934.2 1.8 81
2019-08-09 22:00:00 18.4 8 Sur 21 Sur 0 933.5 1.1 76
2019-08-09 21:00:00 19 9 Sur 26 Sur 0 933 1.4 73
2019-08-09 20:00:00 19.8 12 Sur 27 Sur 0 932.4 0.9 65
2019-08-09 19:00:00 20.4 11 Sur 37 Oeste 0.2 932.4 0.9 67
2019-08-09 18:00:00 25 15 Oeste 38 Oeste 0 931.6 -0.2 34
2019-08-09 17:00:00 25.8 15 Sudoeste 41 Sudoeste 0 931.5 -0.5 41
2019-08-09 16:00:00 26.1 14 Sudoeste 34 Sudoeste 0 931.5 -0.4 44
2019-08-09 15:00:00 24.2 14 Sudoeste 33 Oeste 0 931.8 0.1 55
2019-08-09 14:00:00 23.4 11 Oeste 32 Oeste 0 932 1.1 61
2019-08-09 13:00:00 22.2 16 Oeste 38 Oeste 0 931.9 2 64
2019-08-09 12:00:00 22 17 Oeste 39 Oeste 0 931.7 2 66
2019-08-09 11:00:00 20.4 10 Oeste 42 Noroeste 0 930.9 1.5 77
2019-08-09 10:00:00 22.6 15 Sudoeste 35 Sur 0 929.9 0.8 69
2019-08-09 09:00:00 21.1 7 Sudoeste 27 Sudoeste 0 929.7 0.5 74
2019-08-09 08:00:00 19.9 6 Sur 15 Sur 0 929.4 0.1 76
2019-08-09 07:00:00 19.6 4 Sudoeste 11 Sur 0 929.1 -0.3 74
2019-08-09 06:00:00 20.3 4 Sur 13 Sur 0 929.2 -0.2 69
2019-08-09 05:00:00 21 7 Sur 14 Sur 0 929.3 -0.1 65
2019-08-09 04:00:00 21.7 4 Sudoeste 16 Sudoeste 0 929.4 -0.3 62
2019-08-09 03:00:00 22.5 8 Sudoeste 17 Oeste 0 929.4 -0.2 59
2019-08-09 02:00:00 23.2 4 Sudoeste 21 Sudoeste 0 929.4 0.1 55
2019-08-09 01:00:00 24.3 7 Sudoeste 18 Sudoeste 0 929.7 1.1 51
2019-08-09 00:00:00 25.2 9 Sudoeste 27 Oeste 0 929.6 1.5 47
2019-08-08 23:00:00 26.2 12 Oeste 23 Oeste 0 929.3 1.5 44
2019-08-08 22:00:00 27.5 11 Oeste 31 Oeste 0 928.6 0.9 40
2019-08-08 21:00:00 28.9 16 Oeste 44 Oeste 0 928.1 0.4 36
2019-08-08 20:00:00 30.5 17 Oeste 43 Oeste 0 927.8 -0.3 33
2019-08-08 19:00:00 31.8 17 Oeste 37 Oeste 0 927.7 -1.1 31
2019-08-08 18:00:00 30.6 12 Sudoeste 27 Oeste 0 927.7 -1.7 34
2019-08-08 17:00:00 31.6 13 Sudoeste 27 Oeste 0 928.1 -1.7 35
2019-08-08 16:00:00 31.3 11 Oeste 26 Sudoeste 0 928.8 -1.4 37
2019-08-08 15:00:00 30.2 12 Sudoeste 26 Oeste 0 929.4 -1.2 39
2019-08-08 14:00:00 28.7 11 Sudoeste 25 Sudoeste 0 929.8 -1 43
2019-08-08 13:00:00 27.6 11 Sudoeste 21 Sudoeste 0 930.2 -0.6 46
2019-08-08 12:00:00 25.4 9 Sudoeste 23 Sudoeste 0 930.6 -0.2 53
2019-08-08 11:00:00 23.8 8 Sudoeste 16 Sudoeste 0 930.8 0.1 55
2019-08-08 10:00:00 22.2 8 Sudoeste 17 Sur 0 930.8 0.5 59
2019-08-08 09:00:00 20 3 Sur 13 Sudoeste 0 930.8 0.5 69
2019-08-08 08:00:00 19.6 6 Sur 13 Sur 0 930.7 0 68
2019-08-08 07:00:00 19.4 8 Sur 15 Sur 0 930.3 -0.5 68
2019-08-08 06:00:00 19.7 4 Sudeste 11 Sudeste 0 930.3 -0.6 68
2019-08-08 05:00:00 20 2 Sudeste 6 Sur 0 930.7 -0.3 69
2019-08-08 04:00:00 20.2 4 Sur 12 Sur 0 930.8 -0.1 68
2019-08-08 03:00:00 20.3 3 Sur 9 Sudoeste 0 930.9 0.1 67
2019-08-08 02:00:00 19.8 0 Calma 5 Noroeste 0 931 0.1 70
2019-08-08 01:00:00 20 0 Calma 6 Noroeste 0 930.9 0.4 69
2019-08-08 00:00:00 20.3 2 Noroeste 5 Norte 0 930.8 0.8 67
2019-08-07 23:00:00 20.3 2 Sudoeste 12 Noroeste 0 930.9 1.2 67
2019-08-07 22:00:00 20.6 4 Noroeste 22 Noroeste 0 930.5 1 67
2019-08-07 21:00:00 22.4 10 Noroeste 25 Noroeste 0 930 0.7 57
2019-08-07 20:00:00 23.8 10 Noroeste 27 Noroeste 0 929.7 0.6 47
2019-08-07 19:00:00 25.9 11 Oeste 41 Noroeste 0 929.5 -0.3 40
2019-08-07 18:00:00 27.1 13 Oeste 31 Oeste 0 929.3 -0.7 31
2019-08-07 17:00:00 28 8 Sur 34 Sur 0 929.1 -1 34
2019-08-07 16:00:00 26.6 12 Sudoeste 25 Sur 0 929.8 -0.3 35
2019-08-07 15:00:00 26.7 9 Sudoeste 22 Sudoeste 0 930 -0.1 33
2019-08-07 14:00:00 26.5 8 Sudoeste 18 Sudoeste 0 930.1 0 36
2019-08-07 13:00:00 25.9 5 Sur 14 Sur 0 930.1 0.4 38
2019-08-07 12:00:00 24.4 5 Oeste 13 Norte 0 930.1 0.8 43
2019-08-07 11:00:00 23 4 Sudoeste 10 Sudoeste 0 930.1 1.3 49
2019-08-07 10:00:00 22.1 4 Noroeste 7 Noroeste 0 929.7 1.1 53
2019-08-07 09:00:00 19.6 2 Noroeste 5 Noroeste 0 929.3 1.1 68
2019-08-07 08:00:00 18.6 3 Norte 6 Noroeste 0 928.8 0.5 75
2019-08-07 07:00:00 18.2 3 Oeste 7 Noroeste 0 928.6 0.7 75
2019-08-07 06:00:00 18.8 4 Noroeste 7 Noroeste 0 928.2 -0.5 72
2019-08-07 05:00:00 19.6 4 Noroeste 8 Sur 0 928.3 -0.8 69
2019-08-07 04:00:00 20.4 4 Este 8 Sudeste 0 927.9 -1.1 66
2019-08-07 03:00:00 20.7 4 Oeste 8 Oeste 0 928.7 -0.5 66
2019-08-07 02:00:00 20.9 2 Nordeste 13 Este 0 929.1 0.5 65
2019-08-07 01:00:00 21.4 5 Norte 25 Norte 0 929 1 63
2019-08-07 00:00:00 23.9 8 Noroeste 20 Norte 0 929.2 1.9 47
2019-08-06 23:00:00 24.6 7 Norte 36 Noroeste 0 928.6 1.8 45
2019-08-06 22:00:00 26.2 15 Noroeste 37 Noroeste 0 928 0.8 32
2019-08-06 21:00:00 28.5 11 Noroeste 26 Oeste 0 927.3 -0.4 27
2019-08-06 20:00:00 30.2 10 Oeste 22 Noroeste 0 926.8 -1.2 23
2019-08-06 19:00:00 31.5 8 Oeste 22 Noroeste 0 927.2 -1.4 28
2019-08-06 18:00:00 31.3 8 Oeste 25 Noroeste 0 927.7 -1.2 27
2019-08-06 17:00:00 32.5 10 Oeste 22 Oeste 0 928 -1.6 25
2019-08-06 16:00:00 31.2 8 Sur 23 Oeste 0 928.6 -1.7 27
2019-08-06 15:00:00 30.5 10 Sudoeste 24 Oeste 0 928.9 -1.6 30
2019-08-06 14:00:00 29.8 8 Sudoeste 17 Sudoeste 0 929.6 -1.2 32
2019-08-06 13:00:00 28.2 6 Sur 19 Sudoeste 0 930.3 -0.1 39
2019-08-06 12:00:00 25.8 5 Sudoeste 13 Sudoeste 0 930.5 0 46
2019-08-06 11:00:00 23.7 5 Sur 11 Sur 0 930.8 0.5 53
2019-08-06 10:00:00 21.4 5 Sur 9 Sudoeste 0 930.4 0 58
2019-08-06 09:00:00 18.8 3 Norte 6 Noroeste 0 930.5 0 73
2019-08-06 08:00:00 17.2 2 Norte 6 Noroeste 0 930.3 0.1 78
2019-08-06 07:00:00 17.5 2 Norte 8 Noroeste 0 930.4 0.1 77
2019-08-06 06:00:00 18.1 4 Noroeste 10 Norte 0 930.5 0.3 76
2019-08-06 05:00:00 19.2 4 Norte 10 Norte 0 930.2 -0.3 73
2019-08-06 04:00:00 20 4 Noroeste 8 Noroeste 0 930.3 -0.2 70
2019-08-06 03:00:00 21.3 4 Noroeste 9 Norte 0 930.2 0.2 57
2019-08-06 02:00:00 22.9 3 Noroeste 16 Noroeste 0 930.5 0.7 40
2019-08-06 01:00:00 24.1 6 Norte 19 Oeste 0 930.5 1.4 35
2019-08-06 00:00:00 24.6 8 Noroeste 19 Noroeste 0 930 1.2 32
2019-08-05 23:00:00 26.3 6 Oeste 14 Oeste 0 929.8 1.1 28
2019-08-05 22:00:00 28.3 5 Oeste 13 Norte 0 929.1 0.5 23
2019-08-05 21:00:00 30.7 7 Oeste 21 Oeste 0 928.8 0 21
2019-08-05 20:00:00 32.8 10 Oeste 26 Oeste 0 928.7 -0.5 17
2019-08-05 19:00:00 33.9 10 Oeste 23 Oeste 0 928.6 -1.1 16
2019-08-05 18:00:00 34.6 6 Oeste 23 Oeste 0 928.8 -1.3 15
2019-08-05 17:00:00 34.1 8 Oeste 22 Oeste 0 929.2 -1.5 10
2019-08-05 16:00:00 32.6 8 Sudoeste 21 Oeste 0 929.7 -1.5 18
2019-08-05 15:00:00 32.6 6 Oeste 20 Oeste 0 930.1 -1.7 18
2019-08-05 14:00:00 30.4 4 Nordeste 13 Este 0 930.7 -1.5 33
2019-08-05 13:00:00 28.1 5 Sudoeste 9 Oeste 0 931.2 -1.2 40
2019-08-05 12:00:00 25.4 4 Norte 10 Norte 0 931.8 -0.5 51
2019-08-05 11:00:00 22.8 3 Norte 8 Norte 0 932.2 -0.1 60
2019-08-05 10:00:00 20 4 Nordeste 10 Norte 0 932.4 0.3 72
2019-08-05 09:00:00 18.4 5 Nordeste 12 Nordeste 0 932.3 0.3 79
2019-08-05 08:00:00 16.5 4 Noroeste 12 Noroeste 0 932.3 0.3 86
2019-08-05 07:00:00 16.5 5 Noroeste 10 Norte 0 932.1 0 86
2019-08-05 06:00:00 17.1 4 Norte 10 Noroeste 0 932 0 84
2019-08-05 05:00:00 17.6 4 Norte 10 Norte 0 932 0 82
2019-08-05 04:00:00 18.3 3 Norte 14 Nordeste 0 932.1 0.5 79
2019-08-05 03:00:00 18.8 4 Norte 18 Nordeste 0 932 0.6 75
2019-08-05 02:00:00 20.3 8 Norte 21 Norte 0 932 1 69
2019-08-05 01:00:00 23.9 8 Norte 26 Norte 0 931.6 1.3 41
2019-08-05 00:00:00 25.1 4 Noroeste 17 Noroeste 0 931.4 1.6 31
2019-08-04 23:00:00 26 6 Noroeste 15 Oeste 0 931 1.5 26
2019-08-04 22:00:00 27.8 7 Oeste 18 Noroeste 0 930.3 0.9 25
2019-08-04 21:00:00 30.6 9 Oeste 31 Oeste 0 929.8 0.3 22
2019-08-04 20:00:00 32.8 8 Oeste 25 Oeste 0 929.5 -0.3 22
2019-08-04 19:00:00 32.4 7 Sudoeste 22 Oeste 0 929.4 -0.7 24
2019-08-04 18:00:00 33.6 10 Sudoeste 27 Sudoeste 0 929.5 -1 21
2019-08-04 17:00:00 33.8 10 Sudoeste 24 Oeste 0 929.8 -1 20
2019-08-04 16:00:00 33 8 Sur 18 Sudoeste 0 930.1 -1.3 22
2019-08-04 15:00:00 32.4 9 Sudoeste 20 Sudoeste 0 930.5 -1.1 25
2019-08-04 14:00:00 30.9 6 Sudoeste 18 Noroeste 0 930.8 -0.9 29
2019-08-04 13:00:00 28.5 4 Sudeste 10 Sudeste 0 931.4 -0.3 41
2019-08-04 12:00:00 26.4 4 Nordeste 10 Norte 0 931.6 0.1 48
2019-08-04 11:00:00 24.2 3 Norte 8 Noroeste 0 931.7 0.4 55
2019-08-04 10:00:00 21.2 3 Oeste 8 Norte 0 931.7 0.7 63
2019-08-04 09:00:00 19.2 3 Norte 5 Norte 0 931.5 0.7 70
2019-08-04 08:00:00 17.3 0 Calma 8 Norte 0 931.3 0.4 75
2019-08-04 07:00:00 17.4 4 Noroeste 6 Norte 0 931 0.1 74
2019-08-04 06:00:00 18.1 3 Noroeste 8 Norte 0 930.8 0.4 70
2019-08-04 05:00:00 18.9 3 Norte 12 Norte 0 930.9 0.6 66
2019-08-04 04:00:00 19.6 4 Noroeste 17 Norte 0 930.9 1 64
2019-08-04 03:00:00 20.8 8 Noroeste 17 Noroeste 0 930.4 0.7 65
2019-08-04 02:00:00 22.3 5 Noroeste 14 Norte 0 930.3 0.9 59
2019-08-04 01:00:00 24.5 6 Noroeste 26 Noroeste 0 929.9 1.1 42
2019-08-04 00:00:00 26.6 13 Noroeste 29 Noroeste 0 929.7 1.3 32
2019-08-03 23:00:00 27 8 Oeste 16 Oeste 0 929.4 1.2 23
2019-08-03 22:00:00 29.6 8 Oeste 16 Sudoeste 0 928.8 0.4 18
2019-08-03 21:00:00 31.8 7 Oeste 13 Oeste 0 928.4 -0.3 16
2019-08-03 20:00:00 34.2 4 Sur 16 Oeste 0 928.2 -0.9 12
2019-08-03 19:00:00 34.9 9 Oeste 20 Noroeste 0 928.4 -1.1 10
2019-08-03 18:00:00 35.1 8 Sudoeste 22 Oeste 0 928.7 -1.3 12
2019-08-03 17:00:00 35.2 10 Oeste 21 Oeste 0 929.1 -1.3 12
2019-08-03 16:00:00 33.9 4 Este 15 Sur 0 929.5 -1.4 17
2019-08-03 15:00:00 33.2 6 Sudoeste 15 Oeste 0 930 -1.1 16
2019-08-03 14:00:00 31.3 6 Sudoeste 16 Sur 0 930.4 -0.7 28
2019-08-03 13:00:00 29.1 6 Sur 13 Sur 0 930.9 -0.2 34
2019-08-03 12:00:00 26.7 4 Sudeste 9 Sudeste 0 931.1 0 38
2019-08-03 11:00:00 24.4 4 Este 9 Nordeste 0 931.1 0.2 45
2019-08-03 10:00:00 21.5 4 Nordeste 9 Norte 0 931.1 0.3 54
2019-08-03 09:00:00 18.7 4 Norte 10 Norte 0 931.1 0.5 63
2019-08-03 08:00:00 17.3 4 Norte 13 Noroeste 0 930.9 0.1 70
2019-08-03 07:00:00 17.5 4 Norte 13 Nordeste 0 930.8 -0.1 70
2019-08-03 06:00:00 18.1 5 Noroeste 11 Noroeste 0 930.6 -0.4 70
2019-08-03 05:00:00 19.2 5 Norte 12 Norte 0 930.8 -0.5 66
2019-08-03 04:00:00 19.9 4 Noroeste 8 Norte 0 930.9 -0.7 63
2019-08-03 03:00:00 20.7 3 Noroeste 9 Norte 0 931 -0.4 60
2019-08-03 02:00:00 22.2 3 Noroeste 13 Oeste 0 931.3 0.3 55
2019-08-03 01:00:00 23.3 4 Norte 12 Nordeste 0 931.6 1.1 49
2019-08-03 00:00:00 24.8 4 Norte 15 Norte 0 931.4 1.2 40
2019-08-02 23:00:00 26.1 3 Norte 13 Norte 0 931 0.8 27
2019-08-02 22:00:00 28.3 5 Norte 14 Norte 0 930.5 0.2 25
2019-08-02 21:00:00 30.6 5 Noroeste 13 Oeste 0 930.2 -0.4 19
2019-08-02 20:00:00 32.3 4 Norte 10 Oeste 0 930.2 -0.8 18
2019-08-02 19:00:00 33.5 4 Sudoeste 15 Nordeste 0 930.3 -1.2 17
2019-08-02 18:00:00 33 4 Noroeste 15 Este 0 930.6 -1.3 17
2019-08-02 17:00:00 32.8 6 Nordeste 17 Nordeste 0 931 -1.2 18
2019-08-02 16:00:00 32.5 4 Este 13 Nordeste 0 931.5 -1.2 20
2019-08-02 15:00:00 31.2 4 Norte 11 Nordeste 0 931.9 -1 21
2019-08-02 14:00:00 29.5 6 Norte 14 Nordeste 0 932.2 -0.8 34
2019-08-02 13:00:00 27.2 8 Este 14 Nordeste 0 932.7 -0.4 46
2019-08-02 12:00:00 24.4 6 Este 13 Nordeste 0 932.9 0.1 54
2019-08-02 11:00:00 20.9 5 Nordeste 12 Este 0 933 0.5 64
2019-08-02 10:00:00 18 5 Norte 11 Noroeste 0 933.1 0.9 75
2019-08-02 09:00:00 16.4 4 Norte 10 Norte 0 932.8 0.8 81
2019-08-02 08:00:00 14.8 4 Norte 13 Noroeste 0 932.5 0.4 88
2019-08-02 07:00:00 14.9 4 Norte 17 Norte 0 932.2 0.2 87
2019-08-02 06:00:00 15.2 4 Norte 15 Norte 0 932 -0.2 86
2019-08-02 05:00:00 15.6 6 Norte 21 Norte 0 932.1 -0.2 84
2019-08-02 04:00:00 16.2 7 Norte 16 Norte 0 932 -0.1 83
2019-08-02 03:00:00 16.9 5 Norte 18 Norte 0 932.2 0.6 81
2019-08-02 02:00:00 17.6 5 Norte 13 Norte 0 932.3 1.3 77
2019-08-02 01:00:00 19.2 4 Nordeste 25 Nordeste 0 932.1 2.1 71
2019-08-02 00:00:00 20.9 7 Nordeste 23 Nordeste 0 931.6 2.2 66
2019-08-01 23:00:00 23.1 10 Nordeste 26 Este 0 931 2 57
2019-08-01 22:00:00 25.8 5 Norte 12 Norte 0 930 1.2 44
2019-08-01 21:00:00 28.9 7 Oeste 18 Oeste 0 929.4 0.5 20
2019-08-01 20:00:00 29.9 8 Oeste 21 Sudoeste 0 929 0.1 19
2019-08-01 19:00:00 31.3 10 Oeste 24 Oeste 0 928.8 -0.4 18
2019-08-01 18:00:00 31.2 7 Noroeste 24 Noroeste 0 928.9 -0.5 18
2019-08-01 17:00:00 31.8 11 Oeste 24 Oeste 0 928.9 -0.7 18
2019-08-01 16:00:00 31.3 10 Oeste 27 Oeste 0 929.2 -0.6 21
2019-08-01 15:00:00 30.2 12 Oeste 25 Oeste 0 929.4 -0.6 25
2019-08-01 14:00:00 28.6 4 Noroeste 17 Noroeste 0 929.6 -0.2 34
2019-08-01 13:00:00 26.8 4 Norte 16 Noroeste 0 929.8 0.3 42
2019-08-01 12:00:00 24.5 5 Oeste 14 Sudoeste 0 930 0.6 48
2019-08-01 11:00:00 21.3 6 Noroeste 12 Oeste 0 929.8 0.9 59
2019-08-01 10:00:00 19.1 4 Nordeste 11 Nordeste 0 929.5 0.9 68
2019-08-01 09:00:00 16.4 6 Norte 14 Norte 0 929.4 0.8 78
2019-08-01 08:00:00 15.1 5 Norte 17 Noroeste 0 928.9 0.4 82
2019-08-01 07:00:00 15.3 5 Norte 15 Noroeste 0 928.6 -0.1 80
2019-08-01 06:00:00 15.6 6 Norte 15 Norte 0 928.6 -0.6 79
2019-08-01 05:00:00 16.4 5 Norte 18 Nordeste 0 928.5 -0.8 73
2019-08-01 04:00:00 17.4 5 Norte 19 Norte 0 928.7 -1 67
2019-08-01 03:00:00 18.4 6 Norte 18 Noroeste 0 929.2 -0.8 62
2019-08-01 02:00:00 19.4 6 Norte 24 Norte 0 929.3 -0.6 57
2019-08-01 01:00:00 20.5 6 Norte 22 Norte 0 929.7 0.3 53
2019-08-01 00:00:00 21.2 8 Norte 27 Nordeste 0 930 1 49
2019-07-31 23:00:00 22.2 6 Nordeste 26 Nordeste 0 929.9 1.1 43
2019-07-31 22:00:00 23.9 7 Nordeste 27 Este 0 929.4 0.8 39
2019-07-31 21:00:00 26.1 6 Nordeste 23 Norte 0 929 -0.1 33
2019-07-31 20:00:00 27.2 8 Norte 24 Noroeste 0 928.8 -0.9 29
2019-07-31 19:00:00 28.7 6 Norte 17 Norte 0 928.6 -2 25
2019-07-31 18:00:00 29.2 5 Norte 14 Norte 0 929.1 -1.9 25
2019-07-31 17:00:00 29.3 6 Nordeste 15 Nordeste 0 929.7 -1.9 27
2019-07-31 16:00:00 28.6 5 Norte 14 Nordeste 0 930.6 -1.5 29
2019-07-31 15:00:00 26.5 5 Norte 19 Norte 0 931 -1.6 33
2019-07-31 14:00:00 25.1 6 Norte 21 Norte 0 931.6 -1.5 36
2019-07-31 13:00:00 22.7 8 Norte 19 Norte 0 932.1 -1 40
2019-07-31 12:00:00 19.9 6 Norte 19 Nordeste 0 932.6 -1 48
2019-07-31 11:00:00 17.8 8 Nordeste 24 Nordeste 0 933.1 -0.2 55
2019-07-31 10:00:00 14.9 8 Norte 21 Nordeste 0 933.1 -0.4 64
2019-07-31 09:00:00 12.9 6 Norte 19 Norte 0 933.6 -0.1 72
2019-07-31 08:00:00 11.6 6 Norte 22 Norte 0 933.3 -0.5 79
2019-07-31 07:00:00 11.9 6 Norte 20 Norte 0 933.5 -0.4 78
2019-07-31 06:00:00 12.2 7 Norte 16 Nordeste 0 933.7 -0.5 76
2019-07-31 05:00:00 12.7 5 Norte 17 Nordeste 0 933.8 -0.3 74
2019-07-31 04:00:00 13.3 6 Norte 22 Nordeste 0 933.9 -0.2 72
2019-07-31 03:00:00 14 7 Norte 24 Norte 0 934.2 0.3 69
2019-07-31 02:00:00 15.1 6 Norte 24 Norte 0 934.1 0.3 64
2019-07-31 01:00:00 16.3 5 Nordeste 25 Nordeste 0 934.1 1.2 59
2019-07-31 00:00:00 17.7 6 Nordeste 30 Nordeste 0 933.9 1.3 51
2019-07-30 23:00:00 19.6 8 Nordeste 27 Nordeste 0 933.8 1.2 43
2019-07-30 22:00:00 21.8 6 Norte 22 Norte 0 932.9 0.3 35
2019-07-30 21:00:00 23.4 5 Norte 17 Nordeste 0 932.6 -0.3 27
2019-07-30 20:00:00 24.6 4 Norte 17 Nordeste 0 932.6 -0.7 25
2019-07-30 19:00:00 25 5 Norte 17 Norte 0 932.6 -1.2 24
2019-07-30 18:00:00 25.4 6 Este 18 Nordeste 0 932.9 -1.3 24
2019-07-30 17:00:00 25.5 7 Noroeste 17 Norte 0 933.3 -1.5 24
2019-07-30 16:00:00 24.7 8 Norte 23 Norte 0 933.8 -1.3 27
2019-07-30 15:00:00 23.7 6 Norte 16 Norte 0 934.2 -1 29
2019-07-30 14:00:00 22.2 5 Este 18 Sudeste 0 934.8 -0.3 34
2019-07-30 13:00:00 20.9 5 Nordeste 12 Norte 0 935.1 -0.1 40
2019-07-30 12:00:00 19.2 5 Norte 13 Este 0 935.2 0.2 50
2019-07-30 11:00:00 17.5 5 Nordeste 12 Este 0 935.1 0.8 58
2019-07-30 10:00:00 15.2 4 Norte 10 Noroeste 0 935.2 1.4 59
2019-07-30 09:00:00 13.2 3 Noroeste 12 Noroeste 0 935 1.4 63
2019-07-30 08:00:00 11.5 4 Noroeste 9 Noroeste 0 934.3 0.6 70
2019-07-30 07:00:00 11.6 5 Norte 21 Noroeste 0 933.8 0.4 69
2019-07-30 06:00:00 12 12 Noroeste 25 Noroeste 0 933.6 0.5 68
2019-07-30 05:00:00 12.5 8 Noroeste 21 Noroeste 0 933.7 0.8 67
2019-07-30 04:00:00 13.5 8 Norte 26 Noroeste 0 933.4 0.8 64
2019-07-30 03:00:00 14.3 12 Noroeste 30 Noroeste 0 933.1 0.9 61
2019-07-30 02:00:00 15.4 11 Noroeste 25 Oeste 0 932.9 1.1 57
2019-07-30 01:00:00 16.4 10 Noroeste 22 Norte 0 932.6 2.2 50
2019-07-30 00:00:00 17.9 10 Noroeste 22 Noroeste 0 932.2 2.5 41
2019-07-29 23:00:00 19.5 10 Noroeste 28 Noroeste 0 931.8 2.5 39
2019-07-29 22:00:00 21.3 10 Oeste 27 Oeste 0 930.4 1.5 28
2019-07-29 21:00:00 23.4 12 Oeste 30 Oeste 0 929.7 0.9 23
2019-07-29 20:00:00 25.5 13 Oeste 40 Oeste 0 929.3 0.4 20
2019-07-29 19:00:00 26.7 14 Oeste 37 Oeste 0 928.9 0 21
2019-07-29 18:00:00 27.6 15 Oeste 36 Oeste 0 928.8 -0.1 19
2019-07-29 17:00:00 27.6 14 Oeste 36 Oeste 0 928.9 0 21
2019-07-29 16:00:00 27.4 15 Oeste 33 Oeste 0 928.9 -0.3 23
2019-07-29 15:00:00 26.6 14 Oeste 35 Oeste 0 928.9 -0.4 30
2019-07-29 14:00:00 25 14 Sudoeste 32 Sudoeste 0 928.9 -0.4 40
2019-07-29 13:00:00 23.8 13 Oeste 28 Oeste 0 929.2 0 46
2019-07-29 12:00:00 22.9 13 Oeste 28 Oeste 0 929.3 0.4 50
2019-07-29 11:00:00 20.8 8 Oeste 21 Sur 0 929.3 0.8 51
2019-07-29 10:00:00 18.3 7 Sudoeste 17 Sudoeste 0 929.2 1.2 49
2019-07-29 09:00:00 16.1 8 Sur 15 Sudoeste 0 928.9 1.1 55
2019-07-29 08:00:00 15 6 Sur 12 Sur 0 928.5 0.9 54
2019-07-29 07:00:00 15.2 6 Sur 12 Sur 0 928 0.5 51
2019-07-29 06:00:00 16.4 6 Sur 14 Sudoeste 0 927.8 0.3 47
2019-07-29 05:00:00 17.6 6 Sudoeste 18 Oeste 0 927.6 0.3 43
2019-07-29 04:00:00 17.8 7 Sudoeste 12 Sudoeste 0 927.5 0.2 38
2019-07-29 03:00:00 17.9 2 Sudoeste 9 Sudoeste 0 927.5 0.3 38
2019-07-29 02:00:00 19.2 3 Sur 11 Sur 0 927.3 0.1 35
2019-07-29 01:00:00 21.1 7 Sudoeste 11 Sudoeste 0 927.3 0.4 30
2019-07-29 00:00:00 20.7 4 Sur 8 Sur 0 927.2 0.3 35
2019-07-28 23:00:00 22.1 3 Sur 6 Sudeste 0 927.2 0.3 30
2019-07-28 22:00:00 23.8 3 Sudoeste 8 Sudoeste 0 926.9 0.2 26
2019-07-28 21:00:00 25.5 3 Sudoeste 15 Oeste 0 926.9 0 23
2019-07-28 20:00:00 27.5 9 Oeste 18 Sudoeste 0 926.9 -0.6 19
2019-07-28 19:00:00 28.1 7 Oeste 20 Oeste 0 926.7 -1.4 17
2019-07-28 18:00:00 27.4 4 Noroeste 16 Oeste 0 926.9 -1.5 18
2019-07-28 17:00:00 26.4 4 Norte 18 Nordeste 0 927.5 -1.5 27
2019-07-28 16:00:00 25.4 8 Sudeste 16 Este 0 928.1 -1.4 30
2019-07-28 15:00:00 24 5 Sudoeste 14 Sudoeste 0 928.4 -1.5 30
2019-07-28 14:00:00 22.6 5 Norte 14 Noroeste 0 929 -1.4 39
2019-07-28 13:00:00 21.5 5 Noroeste 14 Este 0 929.5 -0.9 42
2019-07-28 12:00:00 19.9 5 Sudeste 18 Este 0 929.9 -0.3 52
2019-07-28 11:00:00 17.6 6 Nordeste 17 Este 0 930.4 0.3 62
2019-07-28 10:00:00 15.9 6 Nordeste 13 Nordeste 0 930.4 0.5 68
2019-07-28 09:00:00 13.8 5 Nordeste 12 Nordeste 0 930.2 0.4 77
2019-07-28 08:00:00 11.5 4 Norte 8 Norte 0 930.1 0.2 88
2019-07-28 07:00:00 11 3 Noroeste 6 Noroeste 0 929.9 -0.2 89
2019-07-28 06:00:00 11.3 4 Noroeste 7 Noroeste 0 929.8 -0.3 86
2019-07-28 05:00:00 11.8 3 Noroeste 8 Norte 0 929.9 -0.3 86
2019-07-28 04:00:00 12.9 3 Norte 15 Nordeste 0 930.1 0.2 79
2019-07-28 03:00:00 13.6 7 Nordeste 19 Este 0 930.1 0.6 76
2019-07-28 02:00:00 14.1 8 Este 22 Nordeste 0 930.2 1.1 74
2019-07-28 01:00:00 14.8 9 Este 21 Nordeste 0 929.9 1.5 70
2019-07-28 00:00:00 15.5 7 Nordeste 28 Nordeste 0 929.5 2.2 67
2019-07-27 23:00:00 16.4 13 Nordeste 27 Nordeste 0 929.1 2.3 67
2019-07-26 12:00:00 21.5 8 Sudoeste 17 Oeste 0 930.2 0.1 54
2019-07-26 11:00:00 20.4 6 Oeste 18 Noroeste 0 930.3 0.7 59
2019-07-26 10:00:00 19.2 7 Oeste 15 Oeste 0 930.4 1 64
2019-07-26 09:00:00 18.1 6 Oeste 18 Noroeste 0 930.1 0 68
2019-07-26 08:00:00 17.8 6 Oeste 24 Noroeste 0 929.6 -0.4 73
2019-07-26 07:00:00 17.9 9 Noroeste 25 Oeste 0 929.4 -0.8 74
2019-07-26 06:00:00 18.7 8 Oeste 21 Oeste 0 930.1 -0.2 73
2019-07-26 05:00:00 19.6 8 Oeste 17 Oeste 0 930 -0.7 68
2019-07-26 04:00:00 20.3 10 Oeste 23 Oeste 0 930.2 0.3 68
2019-07-26 03:00:00 21.6 9 Oeste 18 Sudoeste 0 930.3 0.4 64
2019-07-26 02:00:00 22.5 9 Oeste 23 Noroeste 0 930.7 0.9 57
2019-07-26 01:00:00 24.1 3 Norte 8 Norte 0 929.9 0.9 49
2019-07-26 00:00:00 24.6 5 Norte 23 Noroeste 0 929.9 1.5 46
2019-07-25 23:00:00 25.5 11 Noroeste 32 Noroeste 0 929.8 1.9 44
2019-07-25 22:00:00 27.2 6 Noroeste 28 Oeste 0 929 1.2 33
2019-07-25 21:00:00 30.5 14 Oeste 31 Oeste 0 928.4 0.4 25
2019-07-25 20:00:00 32 14 Oeste 34 Oeste 0 927.9 -0.7 20
2019-07-25 19:00:00 33.6 10 Sudoeste 32 Sudoeste 0 927.8 -1 17
2019-07-25 18:00:00 34 10 Sudoeste 36 Oeste 0 928 -1 16
2019-07-25 17:00:00 33.3 16 Oeste 33 Oeste 0 928.6 -0.9 16
2019-07-25 16:00:00 33.8 13 Sudoeste 32 Oeste 0 928.8 -1 17
2019-07-25 15:00:00 33.3 14 Sudoeste 32 Sur 0 929 -1.2 21
2019-07-25 14:00:00 32.8 15 Sudoeste 36 Sudoeste 0 929.5 -1 21
2019-07-25 13:00:00 31.8 12 Sudoeste 25 Sudoeste 0 929.8 -0.8 25
2019-07-25 12:00:00 29.6 6 Sur 13 Sudeste 0 930.2 -0.4 30
2019-07-25 11:00:00 26.9 5 Sur 14 Sur 0 930.5 0.2 36
2019-07-25 10:00:00 23.5 6 Sur 14 Sudeste 0 930.6 0.3 41
2019-07-25 09:00:00 22.1 7 Sudeste 15 Sudeste 0 930.6 0.6 48
2019-07-25 08:00:00 20.5 3 Sur 17 Sudoeste 0 930.3 0.2 55
2019-07-25 07:00:00 21.2 9 Sudoeste 18 Sur 0 930.3 0 54
2019-07-25 06:00:00 22.6 8 Sudoeste 13 Sudoeste 0 930 0 48
2019-07-25 05:00:00 22.9 8 Sudoeste 14 Sudoeste 0 930.1 0.4 48
2019-07-25 04:00:00 24.5 6 Sudoeste 13 Oeste 0 930.3 0.7 41
2019-07-25 03:00:00 24.5 7 Oeste 15 Oeste 0 930 0.5 40
2019-07-25 02:00:00 24.6 7 Noroeste 19 Norte 0 929.7 0.3 43
2019-07-25 01:00:00 25.7 7 Oeste 17 Oeste 0 929.6 0.6 37
2019-07-25 00:00:00 27.4 3 Este 10 Oeste 0 929.5 0.9 32
2019-07-24 23:00:00 29.9 5 Sudoeste 15 Oeste 0 929.4 1 27
2019-07-24 22:00:00 31.3 5 Oeste 17 Oeste 0 929 0.4 24
2019-07-24 21:00:00 33.1 9 Sudoeste 23 Sudoeste 0 928.6 -0.3 21
2019-07-24 20:00:00 34.6 5 Sur 21 Sudoeste 0 928.4 -1.2 22
2019-07-24 19:00:00 34.9 8 Sur 20 Sudoeste 0 928.6 -1.4 22
2019-07-24 18:00:00 35.3 11 Sudoeste 27 Oeste 0 928.9 -1.8 21
2019-07-24 17:00:00 34.4 10 Sudoeste 36 Sudoeste 0 929.6 -1.6 23
2019-07-24 16:00:00 34.8 12 Oeste 29 Oeste 0 930 -1.6 24
2019-07-24 15:00:00 34.2 11 Oeste 24 Sudoeste 0 930.7 -1.3 26
2019-07-24 14:00:00 32.9 9 Sudoeste 21 Sudoeste 0 931.2 -1 28
2019-07-24 13:00:00 31.6 5 Sur 12 Sudeste 0 931.6 -0.7 31
2019-07-24 12:00:00 28.7 6 Sudoeste 13 Sur 0 932 -0.4 41
2019-07-24 11:00:00 26.6 3 Sur 8 Sur 0 932.2 0 47
2019-07-24 10:00:00 22.7 3 Nordeste 9 Norte 0 932.3 0.2 66
2019-07-24 09:00:00 20.9 3 Nordeste 5 Norte 0 932.4 0.4 75
2019-07-24 08:00:00 18.9 0 Calma 7 Este 0 932.2 -0.1 81
2019-07-24 07:00:00 18.5 0 Calma 6 Oeste 0 932.1 -0.7 80
2019-07-24 06:00:00 19.1 5 Oeste 7 Oeste 0 932 -0.7 79
2019-07-24 05:00:00 19.6 3 Este 5 Este 0 932.3 -1.1 75
2019-07-24 04:00:00 20.1 3 Nordeste 8 Sudeste 0 932.8 0.1 73
2019-07-24 03:00:00 20.7 6 Este 12 Este 0 932.7 -0.7 72
2019-07-24 02:00:00 20.9 8 Sudeste 22 Sur 0 933.4 -1.3 74
2019-07-24 01:00:00 20.6 5 Sur 12 Oeste 0 932.7 1.3 81
2019-07-24 00:00:00 20.5 3 Este 32 Sudoeste 2.8 933.4 2.7 78
2019-07-23 23:00:00 21.7 6 Sur 44 Sudeste 3.6 934.7 4.4 73
2019-07-23 22:00:00 27.9 5 Nordeste 14 Este 0 931.4 1.4 37
2019-07-23 21:00:00 29.5 5 Oeste 13 Este 0 930.7 0.4 33
2019-07-23 20:00:00 29.3 3 Oeste 62 Oeste 0 930.3 -0.6 38
2019-07-23 19:00:00 34.6 10 Sudoeste 29 Oeste 0 930 -1.7 20
2019-07-23 18:00:00 35.9 13 Oeste 30 Sudoeste 0 930.3 -2.2 18
2019-07-23 17:00:00 35.5 8 Sur 28 Sur 0 930.9 -1.8 21
2019-07-23 16:00:00 34.8 6 Sudoeste 18 Este 0 931.7 -2.5 23
2019-07-23 15:00:00 32.7 6 Sudeste 16 Sudeste 0 932.5 -1.2 27
2019-07-23 14:00:00 30.5 6 Sudeste 26 Sur 0 932.7 -0.6 31
2019-07-23 13:00:00 28.9 8 Sudoeste 30 Sur 0 934.2 1.4 40
2019-07-23 12:00:00 27.1 5 Sudeste 17 Sudeste 0 933.7 0.6 44
2019-07-23 11:00:00 26.4 6 Sudeste 21 Este 0 933.3 -2.8 44
2019-07-23 10:00:00 23.7 9 Este 17 Este 0 932.8 -2.6 55
2019-07-23 09:00:00 21.5 8 Oeste 20 Sur 0 933.1 -0.7 63
2019-07-23 08:00:00 21.7 5 Sur 26 Sur 0 936.1 2.3 63
2019-07-23 07:00:00 21 8 Sudoeste 27 Sur 1.4 935.4 2.4 64
2019-07-23 06:00:00 21.7 5 Oeste 9 Noroeste 0 933.8 -1 59
2019-07-23 05:00:00 22.6 5 Sudeste 32 Este 0 933.8 -2.1 51
2019-07-23 04:00:00 22.6 12 Este 24 Este 0 933 -4.4 54
2019-07-23 03:00:00 22.5 7 Este 13 Este 0 934.8 -0.4 56
2019-07-23 02:00:00 22.4 3 Nordeste 36 Sudoeste 0 935.9 1.5 59
2019-07-23 01:00:00 23.3 10 Oeste 36 Oeste 0 937.4 3.3 51
2019-07-23 00:00:00 23.4 6 Noroeste 19 Norte 0 935.2 1.2 52
2019-07-22 23:00:00 25.2 10 Norte 27 Nordeste 0 934.4 0.6 44
2019-07-22 22:00:00 25.5 7 Noroeste 16 Noroeste 0 934.1 -0.2 52
2019-07-22 21:00:00 25.7 5 Noroeste 14 Oeste 0 934 1.1 55
2019-07-22 20:00:00 25.8 5 Nordeste 26 Nordeste 1 933.8 1.1 49
2019-07-22 19:00:00 27.6 10 Sudeste 40 Sur 2.4 934.3 0.9 44
2019-07-22 18:00:00 32.4 16 Sudeste 41 Sur 0.6 932.9 -1.2 37
2019-07-22 17:00:00 38.5 8 Sur 13 Oeste 0 932.7 -2.1 16
2019-07-22 16:00:00 37.1 6 Norte 18 Este 0 933.4 -1.9 19
2019-07-22 15:00:00 36.6 7 Este 17 Este 0 934.1 -1.6 20
2019-07-22 14:00:00 34.7 4 Sudeste 10 Nordeste 0 934.8 -1.1 23
2019-07-22 13:00:00 32.5 4 Noroeste 12 Nordeste 0 935.3 -0.8 28
2019-07-22 12:00:00 30.6 4 Sur 10 Nordeste 0 935.7 -0.1 29
2019-07-22 11:00:00 26.9 5 Norte 11 Noroeste 0 935.9 0.3 48
2019-07-22 10:00:00 24.1 4 Norte 12 Norte 0 936.1 0.5 60
2019-07-22 09:00:00 21.1 5 Norte 14 Norte 0 935.8 0.2 71
2019-07-22 08:00:00 19.6 5 Norte 11 Nordeste 0 935.6 0.1 78
2019-07-22 07:00:00 19.4 4 Noroeste 11 Norte 0 935.6 -0.2 79
2019-07-22 06:00:00 19.8 3 Norte 11 Norte 0 935.6 -0.3 78
2019-07-22 05:00:00 20.4 4 Norte 12 Norte 0 935.5 -0.5 75
2019-07-22 04:00:00 21.2 5 Norte 15 Norte 0 935.8 -0.3 72
2019-07-22 03:00:00 22.4 4 Norte 16 Noroeste 0 935.9 0.3 68
2019-07-22 02:00:00 23.5 4 Norte 20 Norte 0 936 0.8 64
2019-07-22 01:00:00 25.4 5 Norte 18 Nordeste 0 936.1 1.9 58
2019-07-22 00:00:00 27.7 6 Nordeste 18 Nordeste 0 935.6 1.9 48